Time;durP1;ratioP1;P1;durP2;ratioP2;P2;SDS_P1;SDS_P2;PMS_P1;PMS_P2;Temp;Humidity;BMP_temperature;BMP_pressure;BME280_temperature;BME280_humidity;BME280_pressure;Samples;Min_cycle;Max_cycle;Signal;HPM_P1;HPM_P2
2023/09/30 00:00:01;;;;;;;12.95;3.95;;;15.50;99.90;;;;;;5052032;28;20029;-67
2023/09/30 00:02:27;;;;;;;11.68;3.95;;;15.50;99.90;;;;;;5051393;28;20025;-67
2023/09/30 00:04:53;;;;;;;12.75;4.10;;;15.50;99.90;;;;;;5051865;28;20033;-66
2023/09/30 00:07:19;;;;;;;11.00;3.65;;;15.50;99.90;;;;;;5051049;28;20035;-67
2023/09/30 00:09:45;;;;;;;9.50;3.50;;;15.60;99.90;;;;;;5051645;28;20036;-67
2023/09/30 00:12:10;;;;;;;15.18;4.38;;;15.60;99.90;;;;;;5051828;28;20120;-67
2023/09/30 00:14:37;;;;;;;11.02;3.85;;;15.60;99.90;;;;;;5051634;28;20039;-67
2023/09/30 00:17:03;;;;;;;12.93;4.70;;;15.70;99.90;;;;;;5051992;28;20076;-67
2023/09/30 00:19:28;;;;;;;12.50;4.53;;;15.70;99.90;;;;;;5051009;28;20079;-67
2023/09/30 00:21:54;;;;;;;11.02;4.35;;;15.80;99.90;;;;;;5051456;28;20040;-67
2023/09/30 00:24:20;;;;;;;13.38;3.97;;;15.80;99.90;;;;;;5051089;28;20028;-67
2023/09/30 00:26:46;;;;;;;12.02;4.25;;;15.80;99.90;;;;;;5051872;28;20057;-67
2023/09/30 00:29:11;;;;;;;11.05;4.18;;;15.80;99.90;;;;;;5051235;28;20035;-67
2023/09/30 00:31:37;;;;;;;11.68;4.35;;;15.70;99.90;;;;;;5050297;28;20078;-67
2023/09/30 00:34:03;;;;;;;14.57;4.65;;;15.70;99.90;;;;;;5051460;28;20047;-67
2023/09/30 00:36:28;;;;;;;15.73;4.65;;;15.70;99.90;;;;;;5049937;28;20083;-66
2023/09/30 00:38:54;;;;;;;16.70;4.63;;;15.70;99.90;;;;;;5051391;28;20041;-67
2023/09/30 00:41:20;;;;;;;12.07;4.75;;;15.60;99.90;;;;;;5050052;28;20040;-67
2023/09/30 00:43:48;;;;;;;10.93;3.50;;;15.60;99.90;;;;;;5051249;28;20109;-67
2023/09/30 00:46:29;;;;;;;10.32;3.72;;;15.60;99.90;;;;;;5050855;28;20099;-67
2023/09/30 00:48:58;;;;;;;10.32;4.25;;;15.60;99.90;;;;;;5051320;28;20068;-67
2023/09/30 00:51:24;;;;;;;10.95;3.47;;;15.60;99.90;;;;;;5050024;28;20044;-67
2023/09/30 00:53:52;;;;;;;8.23;3.75;;;15.60;99.90;;;;;;5051185;28;20021;-67
2023/09/30 00:56:19;;;;;;;10.95;3.92;;;15.70;99.90;;;;;;5050451;28;20083;-67
2023/09/30 00:58:47;;;;;;;11.93;3.63;;;15.70;99.90;;;;;;5050715;28;20065;-67
2023/09/30 01:01:13;;;;;;;7.68;3.45;;;15.70;99.90;;;;;;5050590;28;20035;-67
2023/09/30 01:03:39;;;;;;;8.85;3.65;;;15.70;99.90;;;;;;5050066;28;20033;-67
2023/09/30 01:06:05;;;;;;;9.75;3.40;;;15.70;99.90;;;;;;5050892;28;20144;-67
2023/09/30 01:08:32;;;;;;;9.52;4.03;;;15.70;99.90;;;;;;5048348;28;20108;-67
2023/09/30 01:10:58;;;;;;;10.07;3.45;;;15.60;99.90;;;;;;5050932;28;20117;-67
2023/09/30 01:13:32;;;;;;;9.93;3.80;;;15.60;99.90;;;;;;5049451;28;20800;-67
2023/09/30 01:15:58;;;;;;;11.27;4.13;;;15.60;99.90;;;;;;5049502;28;20529;-67
2023/09/30 01:18:25;;;;;;;9.30;3.78;;;15.50;99.90;;;;;;5050195;28;20068;-67
2023/09/30 01:20:52;;;;;;;11.73;4.15;;;15.50;99.90;;;;;;5050425;28;20412;-67
2023/09/30 01:23:17;;;;;;;9.30;4.43;;;15.50;99.90;;;;;;5048240;28;20056;-67
2023/09/30 01:25:44;;;;;;;9.70;3.83;;;15.60;99.90;;;;;;5050468;28;20029;-68
2023/09/30 01:28:10;;;;;;;10.05;3.78;;;15.50;99.90;;;;;;5050723;28;20078;-67
2023/09/30 01:30:36;;;;;;;10.23;4.10;;;15.40;99.90;;;;;;5049877;28;20826;-67
2023/09/30 01:33:01;;;;;;;13.48;4.30;;;15.30;99.90;;;;;;5049878;28;20028;-67
2023/09/30 01:35:27;;;;;;;11.27;4.75;;;15.30;99.90;;;;;;5048832;28;20839;-67
2023/09/30 01:37:52;;;;;;;9.32;3.92;;;15.30;99.90;;;;;;5047669;28;20530;-67
2023/09/30 01:40:18;;;;;;;8.48;3.85;;;15.30;99.90;;;;;;5049538;28;20075;-67
2023/09/30 01:42:44;;;;;;;11.73;4.88;;;15.30;99.90;;;;;;5048808;28;20032;-67
2023/09/30 01:45:10;;;;;;;12.52;4.63;;;15.30;99.90;;;;;;5050244;28;20120;-66
2023/09/30 01:47:36;;;;;;;10.32;4.53;;;15.30;99.90;;;;;;5048966;28;20096;-67
2023/09/30 01:50:01;;;;;;;13.23;4.63;;;15.30;99.90;;;;;;5049989;28;20028;-66
2023/09/30 01:52:27;;;;;;;13.55;4.10;;;15.20;99.90;;;;;;5045096;28;20044;-67
2023/09/30 01:54:54;;;;;;;9.35;3.97;;;15.20;99.90;;;;;;5049368;28;20087;-66
2023/09/30 01:57:19;;;;;;;13.05;4.88;;;15.10;99.90;;;;;;5049473;28;20480;-67
2023/09/30 01:59:45;;;;;;;10.77;4.15;;;15.10;99.90;;;;;;5050199;28;20029;-66
2023/09/30 02:02:10;;;;;;;11.48;4.15;;;15.10;99.90;;;;;;5049602;28;20032;-67
2023/09/30 02:04:36;;;;;;;10.07;4.10;;;15.10;99.90;;;;;;5048980;28;20231;-67
2023/09/30 02:07:02;;;;;;;11.45;4.70;;;15.10;99.90;;;;;;5049288;28;20025;-68
2023/09/30 02:09:28;;;;;;;13.32;4.82;;;15.10;99.90;;;;;;5048265;28;20037;-67
2023/09/30 02:11:54;;;;;;;9.32;4.60;;;15.10;99.90;;;;;;5049487;28;20296;-68
2023/09/30 02:14:20;;;;;;;12.40;4.60;;;15.10;99.90;;;;;;5054767;28;20044;-67
2023/09/30 02:16:46;;;;;;;8.13;4.45;;;15.20;99.90;;;;;;5057067;28;20500;-67
2023/09/30 02:19:12;;;;;;;10.50;4.55;;;15.30;99.90;;;;;;5049498;28;20029;-68
2023/09/30 02:21:38;;;;;;;11.93;4.70;;;15.30;99.90;;;;;;5048425;28;20017;-68
2023/09/30 02:24:06;;;;;;;9.75;4.60;;;15.40;99.90;;;;;;5049572;28;20055;-67
2023/09/30 02:26:32;;;;;;;7.53;4.10;;;15.40;99.90;;;;;;5048875;28;20035;-68
2023/09/30 02:28:58;;;;;;;9.65;4.30;;;15.30;99.90;;;;;;5048918;28;20405;-68
2023/09/30 02:31:24;;;;;;;11.73;4.32;;;15.30;99.90;;;;;;5048226;28;20033;-68
2023/09/30 02:33:49;;;;;;;8.82;4.22;;;15.20;99.90;;;;;;5048974;28;20602;-67
2023/09/30 02:36:15;;;;;;;9.60;4.32;;;15.20;99.90;;;;;;5049061;28;20049;-68
2023/09/30 02:38:41;;;;;;;12.98;4.50;;;15.20;99.90;;;;;;5048486;28;20211;-67
2023/09/30 02:41:07;;;;;;;12.55;4.65;;;15.10;99.90;;;;;;5049169;28;20116;-67
2023/09/30 02:43:33;;;;;;;11.02;4.60;;;15.10;99.90;;;;;;5047974;28;20454;-68
2023/09/30 02:45:59;;;;;;;10.68;4.32;;;15.10;99.90;;;;;;5049274;28;20033;-68
2023/09/30 02:48:24;;;;;;;11.55;4.82;;;15.10;99.90;;;;;;5048115;28;20035;-68
2023/09/30 02:50:50;;;;;;;10.35;4.78;;;15.10;99.90;;;;;;5048855;28;20496;-67
2023/09/30 02:53:16;;;;;;;12.10;4.80;;;15.10;99.90;;;;;;5048593;28;20492;-67
2023/09/30 02:55:42;;;;;;;13.27;5.75;;;15.00;99.90;;;;;;5048055;28;20147;-67
2023/09/30 02:58:08;;;;;;;9.55;5.25;;;15.00;99.90;;;;;;5047558;28;20036;-67
2023/09/30 03:00:37;;;;;;;11.88;5.20;;;15.00;99.90;;;;;;5047341;28;20130;-68
2023/09/30 03:03:04;;;;;;;12.80;5.30;;;15.00;99.90;;;;;;5048565;28;20071;-67
2023/09/30 03:05:33;;;;;;;13.70;5.85;;;15.00;99.90;;;;;;5047560;28;20481;-68
2023/09/30 03:08:00;;;;;;;14.82;5.93;;;15.00;99.90;;;;;;5046954;28;20029;-68
2023/09/30 03:10:26;;;;;;;15.10;5.63;;;15.00;99.90;;;;;;5047915;28;20041;-68
2023/09/30 03:12:55;;;;;;;11.82;5.90;;;15.00;99.90;;;;;;5047718;28;20040;-68
2023/09/30 03:15:21;;;;;;;14.95;6.07;;;15.00;99.90;;;;;;5047096;28;20044;-67
2023/09/30 03:17:48;;;;;;;12.77;5.50;;;15.00;99.90;;;;;;5047783;28;20466;-67
2023/09/30 03:20:18;;;;;;;15.73;6.70;;;15.00;99.90;;;;;;5048474;28;20037;-67
2023/09/30 03:22:46;;;;;;;16.42;6.53;;;14.90;99.90;;;;;;5047877;28;20055;-67
2023/09/30 03:25:15;;;;;;;15.77;6.00;;;14.90;99.90;;;;;;5048043;28;20068;-67
2023/09/30 03:27:40;;;;;;;13.60;6.13;;;14.90;99.90;;;;;;5047553;28;20028;-67
2023/09/30 03:30:08;;;;;;;14.98;6.63;;;14.90;99.90;;;;;;5048072;28;20036;-67
2023/09/30 03:32:37;;;;;;;14.77;6.78;;;14.80;99.90;;;;;;5046929;28;20714;-67
2023/09/30 03:35:07;;;;;;;13.82;6.63;;;14.80;99.90;;;;;;5044782;28;20026;-68
2023/09/30 03:37:32;;;;;;;12.32;6.30;;;14.70;99.90;;;;;;5047421;28;20460;-67
2023/09/30 03:39:58;;;;;;;15.13;7.32;;;14.70;99.90;;;;;;5048403;28;20148;-68
2023/09/30 03:42:24;;;;;;;12.35;5.93;;;14.70;99.90;;;;;;5047639;28;20025;-67
2023/09/30 03:44:50;;;;;;;14.70;7.30;;;14.80;99.90;;;;;;5045559;28;20598;-68
2023/09/30 03:47:16;;;;;;;14.82;6.93;;;14.70;99.90;;;;;;5048067;28;20116;-67
2023/09/30 03:49:42;;;;;;;13.60;7.30;;;14.70;99.90;;;;;;5044870;28;20710;-67
2023/09/30 03:52:10;;;;;;;16.20;7.25;;;14.70;99.90;;;;;;5035335;28;20056;-67
2023/09/30 03:54:37;;;;;;;18.00;7.57;;;14.80;99.90;;;;;;5047082;28;20021;-67
2023/09/30 03:57:03;;;;;;;17.48;7.60;;;14.80;99.90;;;;;;5047839;28;20044;-67
2023/09/30 03:59:30;;;;;;;19.83;8.15;;;14.80;99.90;;;;;;5047249;28;20145;-67
2023/09/30 04:01:58;;;;;;;19.13;7.22;;;14.80;99.90;;;;;;5047494;28;20053;-67
2023/09/30 04:04:25;;;;;;;16.80;7.30;;;14.80;99.90;;;;;;5047645;28;20064;-68
2023/09/30 04:06:51;;;;;;;18.25;7.88;;;14.80;99.90;;;;;;5047566;28;20025;-68
2023/09/30 04:09:17;;;;;;;17.60;7.53;;;14.80;99.90;;;;;;5048254;28;20452;-67
2023/09/30 04:11:43;;;;;;;18.13;7.68;;;14.80;99.90;;;;;;5046405;28;20040;-67
2023/09/30 04:14:09;;;;;;;14.55;7.03;;;14.80;99.90;;;;;;5047608;28;20036;-67
2023/09/30 04:16:35;;;;;;;18.90;7.60;;;14.80;99.90;;;;;;5046931;28;20040;-67
2023/09/30 04:19:01;;;;;;;17.05;7.53;;;14.80;99.90;;;;;;5047588;28;20029;-68
2023/09/30 04:21:29;;;;;;;15.65;7.03;;;14.80;99.90;;;;;;5047573;28;20047;-68
2023/09/30 04:23:55;;;;;;;14.73;7.43;;;14.80;99.90;;;;;;5047646;28;20037;-68
2023/09/30 04:26:22;;;;;;;15.30;6.70;;;14.90;99.90;;;;;;5047513;28;20040;-68
2023/09/30 04:28:47;;;;;;;15.10;8.00;;;14.90;99.90;;;;;;5046235;28;20036;-68
2023/09/30 04:31:13;;;;;;;16.20;6.85;;;14.80;99.90;;;;;;5047690;28;20031;-67
2023/09/30 04:33:39;;;;;;;16.38;7.18;;;14.90;99.90;;;;;;5049298;28;20029;-68
2023/09/30 04:36:09;;;;;;;15.77;7.28;;;14.80;99.90;;;;;;5051112;28;20033;-68
2023/09/30 04:38:37;;;;;;;19.58;7.88;;;14.80;99.90;;;;;;5050893;28;20056;-67
2023/09/30 04:41:03;;;;;;;19.83;7.93;;;14.80;99.90;;;;;;5051521;28;20108;-67
2023/09/30 04:43:29;;;;;;;17.27;7.13;;;14.80;99.90;;;;;;5050619;28;20052;-68
2023/09/30 04:45:56;;;;;;;17.83;7.47;;;14.80;99.90;;;;;;5051581;28;20571;-67
2023/09/30 04:48:23;;;;;;;19.08;7.30;;;14.80;99.90;;;;;;5051525;28;20021;-68
2023/09/30 04:50:49;;;;;;;15.13;6.90;;;14.80;99.90;;;;;;5050408;28;20035;-67
2023/09/30 04:53:17;;;;;;;13.75;6.93;;;14.80;99.90;;;;;;5050992;28;20044;-67
2023/09/30 04:55:43;;;;;;;16.85;7.55;;;14.80;99.90;;;;;;5049142;28;20069;-68
2023/09/30 04:58:09;;;;;;;13.50;7.38;;;14.90;99.90;;;;;;5051258;28;20033;-67
2023/09/30 05:00:34;;;;;;;18.20;7.03;;;14.80;99.90;;;;;;5050115;28;20029;-68
2023/09/30 05:03:00;;;;;;;18.92;6.53;;;14.80;99.90;;;;;;5050519;28;20397;-67
2023/09/30 05:05:28;;;;;;;15.68;6.32;;;14.80;99.90;;;;;;5050118;28;20487;-67
2023/09/30 05:07:54;;;;;;;14.93;7.10;;;14.80;99.90;;;;;;5047467;28;20744;-68
2023/09/30 05:10:20;;;;;;;16.60;7.00;;;14.80;99.90;;;;;;5048515;28;20052;-67
2023/09/30 05:12:46;;;;;;;14.90;6.68;;;14.90;99.90;;;;;;5052482;28;20446;-67
2023/09/30 05:15:15;;;;;;;12.52;6.15;;;14.80;99.90;;;;;;5042296;28;20029;-67
2023/09/30 05:17:43;;;;;;;15.80;6.83;;;14.80;99.90;;;;;;5049811;28;20028;-68
2023/09/30 05:20:12;;;;;;;15.98;6.95;;;14.80;99.90;;;;;;5050331;28;20255;-68
2023/09/30 05:22:44;;;;;;;16.08;7.10;;;14.70;99.90;;;;;;5049624;28;20111;-67
2023/09/30 05:25:10;;;;;;;12.82;6.63;;;14.70;99.90;;;;;;5049455;28;20052;-68
2023/09/30 05:27:36;;;;;;;15.45;6.30;;;14.70;99.90;;;;;;5049405;28;20061;-68
2023/09/30 05:30:02;;;;;;;14.27;6.68;;;14.70;99.90;;;;;;5050213;28;20057;-75
2023/09/30 05:32:27;;;;;;;15.07;6.95;;;14.70;99.90;;;;;;5047640;28;20040;-74
2023/09/30 05:34:54;;;;;;;13.73;6.35;;;14.70;99.90;;;;;;5045876;28;20032;-75
2023/09/30 05:37:21;;;;;;;15.88;7.53;;;14.70;99.90;;;;;;5048161;28;20110;-74
2023/09/30 05:39:48;;;;;;;15.57;7.20;;;14.70;99.90;;;;;;5046039;28;20526;-75
2023/09/30 05:42:15;;;;;;;17.67;7.70;;;14.60;99.90;;;;;;5048451;28;20064;-75
2023/09/30 05:44:43;;;;;;;16.35;7.70;;;14.60;99.90;;;;;;5046582;28;20025;-75
2023/09/30 05:47:08;;;;;;;13.93;7.07;;;14.60;99.90;;;;;;5050289;28;20032;-75
2023/09/30 05:49:36;;;;;;;20.02;7.07;;;14.60;99.90;;;;;;5048011;28;20029;-75
2023/09/30 05:52:02;;;;;;;13.77;7.30;;;14.70;99.90;;;;;;5049980;28;20025;-75
2023/09/30 05:54:28;;;;;;;19.65;7.55;;;14.60;99.90;;;;;;5043424;28;20107;-74
2023/09/30 05:56:54;;;;;;;16.15;8.43;;;14.60;99.90;;;;;;5029571;28;20091;-74
2023/09/30 05:59:20;;;;;;;19.98;7.97;;;14.60;99.90;;;;;;5030350;28;20037;-75
2023/09/30 06:01:46;;;;;;;15.68;7.22;;;14.60;99.90;;;;;;5040860;28;20110;-75
2023/09/30 06:04:12;;;;;;;19.90;7.68;;;14.70;99.90;;;;;;5049237;28;20064;-75
2023/09/30 06:06:38;;;;;;;17.83;7.85;;;14.70;99.90;;;;;;5049069;28;20036;-75
2023/09/30 06:09:07;;;;;;;16.20;7.28;;;14.80;99.90;;;;;;5033574;28;20040;-75
2023/09/30 06:11:33;;;;;;;16.02;6.93;;;14.90;99.90;;;;;;5047690;28;20176;-75
2023/09/30 06:14:00;;;;;;;16.75;7.30;;;14.90;99.90;;;;;;5049441;28;20461;-75
2023/09/30 06:16:27;;;;;;;17.00;6.93;;;14.90;99.90;;;;;;5049754;28;20426;-75
2023/09/30 06:18:55;;;;;;;15.93;7.35;;;15.00;99.90;;;;;;5048521;28;20025;-75
2023/09/30 06:21:21;;;;;;;15.02;6.82;;;15.00;99.90;;;;;;5049730;28;20029;-75
2023/09/30 06:23:53;;;;;;;17.88;7.00;;;15.00;99.90;;;;;;5048068;28;20021;-75
2023/09/30 06:26:20;;;;;;;17.67;6.85;;;15.00;99.90;;;;;;5041582;28;20087;-75
2023/09/30 06:28:47;;;;;;;16.27;7.57;;;15.00;99.90;;;;;;5047380;28;20362;-75
2023/09/30 06:31:14;;;;;;;14.57;6.43;;;15.00;99.90;;;;;;5048980;28;20033;-75
2023/09/30 06:33:40;;;;;;;17.08;6.72;;;15.00;99.90;;;;;;5046231;28;20029;-75
2023/09/30 06:36:09;;;;;;;16.83;6.40;;;15.10;99.90;;;;;;5046670;28;20033;-75
2023/09/30 06:38:36;;;;;;;16.70;7.28;;;15.10;99.90;;;;;;5038852;28;20072;-75
2023/09/30 06:41:02;;;;;;;14.75;6.80;;;15.20;99.90;;;;;;5026929;28;20021;-75
2023/09/30 06:43:28;;;;;;;12.27;6.57;;;15.30;99.90;;;;;;5040638;28;20047;-76
2023/09/30 06:45:54;;;;;;;14.38;6.47;;;15.40;99.90;;;;;;5036630;28;20631;-75
2023/09/30 06:48:21;;;;;;;15.05;6.90;;;15.30;99.90;;;;;;5035174;28;20093;-75
2023/09/30 06:50:48;;;;;;;15.27;7.00;;;15.30;99.90;;;;;;5038863;28;20442;-75
2023/09/30 06:53:23;;;;;;;13.70;6.88;;;15.30;99.90;;;;;;5037305;28;20064;-74
2023/09/30 06:55:51;;;;;;;12.00;6.25;;;15.30;99.90;;;;;;5031449;28;20372;-75
2023/09/30 06:58:20;;;;;;;15.50;6.70;;;15.20;99.90;;;;;;5036329;28;20025;-75
2023/09/30 07:00:55;;;;;;;14.02;6.65;;;15.20;99.90;;;;;;5029498;28;20030;-75
2023/09/30 07:03:21;;;;;;;21.45;7.13;;;15.20;99.90;;;;;;5030016;28;20422;-75
2023/09/30 07:05:49;;;;;;;18.05;7.88;;;15.20;99.90;;;;;;5039044;28;20039;-75
2023/09/30 07:08:18;;;;;;;13.85;6.57;;;15.30;99.90;;;;;;5026989;28;20029;-75
2023/09/30 07:10:49;;;;;;;14.30;7.88;;;15.20;99.90;;;;;;5041494;28;20044;-75
2023/09/30 07:13:16;;;;;;;15.23;7.10;;;15.20;99.90;;;;;;5028963;28;20035;-75
2023/09/30 07:15:42;;;;;;;18.52;7.13;;;15.20;99.90;;;;;;5027533;28;20051;-75
2023/09/30 07:18:08;;;;;;;11.68;6.40;;;15.20;99.90;;;;;;5028773;28;20033;-75
2023/09/30 07:20:34;;;;;;;15.93;7.32;;;15.20;99.90;;;;;;5028451;28;20518;-74
2023/09/30 07:23:03;;;;;;;15.00;7.82;;;15.10;99.90;;;;;;5027537;28;20036;-74
2023/09/30 07:25:31;;;;;;;17.02;8.27;;;15.10;99.90;;;;;;5025123;28;20516;-74
2023/09/30 07:27:58;;;;;;;20.42;7.55;;;15.10;99.90;;;;;;5027870;28;20025;-74
2023/09/30 07:30:24;;;;;;;16.17;8.05;;;15.10;99.90;;;;;;5027245;28;20029;-74
2023/09/30 07:32:50;;;;;;;15.35;8.07;;;15.10;99.90;;;;;;5027993;28;20517;-75
2023/09/30 07:35:16;;;;;;;21.27;8.20;;;15.20;99.90;;;;;;5028226;28;20113;-74
2023/09/30 07:37:43;;;;;;;18.85;8.00;;;15.30;99.90;;;;;;5039345;28;20045;-75
2023/09/30 07:40:10;;;;;;;16.85;7.97;;;15.40;99.90;;;;;;5048196;28;20037;-74
2023/09/30 07:42:36;;;;;;;20.90;7.32;;;15.40;99.90;;;;;;5046818;28;20051;-74
2023/09/30 07:45:03;;;;;;;22.73;8.15;;;15.50;99.90;;;;;;5047898;28;20449;-74
2023/09/30 07:47:30;;;;;;;18.70;7.07;;;15.50;99.90;;;;;;5048259;28;20078;-75
2023/09/30 07:49:56;;;;;;;14.70;7.60;;;15.60;99.90;;;;;;5046045;28;20029;-74
2023/09/30 07:52:22;;;;;;;15.43;8.27;;;15.70;99.90;;;;;;5048268;28;20071;-75
2023/09/30 07:54:47;;;;;;;21.25;7.75;;;15.70;99.90;;;;;;5047249;28;20087;-74
2023/09/30 07:57:13;;;;;;;17.00;8.02;;;15.70;99.90;;;;;;5047955;28;20045;-74
2023/09/30 07:59:39;;;;;;;18.35;8.85;;;15.70;99.90;;;;;;5047678;28;20029;-75
2023/09/30 08:02:04;;;;;;;17.48;8.43;;;15.70;99.90;;;;;;5046380;28;20033;-74
2023/09/30 08:04:31;;;;;;;20.77;7.82;;;15.80;99.90;;;;;;5028122;28;20025;-74
2023/09/30 08:06:56;;;;;;;18.13;8.85;;;15.80;99.90;;;;;;5043518;28;20148;-75
2023/09/30 08:09:23;;;;;;;20.90;8.02;;;15.80;99.90;;;;;;5051764;28;20104;-74
2023/09/30 08:11:53;;;;;;;17.92;7.95;;;16.00;99.90;;;;;;5051154;28;20182;-75
2023/09/30 08:14:19;;;;;;;18.38;7.70;;;16.10;99.90;;;;;;5037929;28;20044;-74
2023/09/30 08:16:45;;;;;;;20.05;8.43;;;16.20;99.90;;;;;;5050635;28;20053;-75
2023/09/30 08:19:10;;;;;;;22.05;8.38;;;16.20;99.90;;;;;;5046046;28;20043;-75
2023/09/30 08:21:36;;;;;;;23.52;8.15;;;16.20;99.90;;;;;;5050187;28;20032;-75
2023/09/30 08:24:02;;;;;;;15.02;7.43;;;16.30;99.90;;;;;;5050226;28;20028;-75
2023/09/30 08:26:28;;;;;;;17.35;7.32;;;16.40;99.90;;;;;;5051258;28;20582;-75
2023/09/30 08:28:54;;;;;;;14.63;7.03;;;16.60;99.90;;;;;;5050182;28;20135;-75
2023/09/30 08:31:21;;;;;;;18.30;7.53;;;16.80;99.90;;;;;;5046627;28;20029;-75
2023/09/30 08:33:47;;;;;;;12.43;6.88;;;16.90;99.90;;;;;;5029672;28;20071;-75
2023/09/30 08:36:13;;;;;;;11.38;6.32;;;17.00;99.90;;;;;;5049338;28;20037;-75
2023/09/30 08:38:40;;;;;;;12.65;6.53;;;17.20;99.90;;;;;;5049411;28;20069;-75
2023/09/30 08:41:10;;;;;;;13.30;6.78;;;17.30;99.90;;;;;;5050660;28;20021;-75
2023/09/30 08:43:40;;;;;;;20.20;6.80;;;17.40;99.90;;;;;;5049545;28;20029;-75
2023/09/30 08:46:06;;;;;;;11.77;6.40;;;17.40;99.90;;;;;;5050963;28;20045;-76
2023/09/30 08:48:33;;;;;;;17.08;6.22;;;17.50;99.90;;;;;;5051237;28;20100;-75
2023/09/30 08:51:00;;;;;;;15.30;6.50;;;17.70;99.90;;;;;;5048204;28;20033;-75
2023/09/30 08:53:26;;;;;;;10.48;5.70;;;17.90;99.90;;;;;;5048210;28;20071;-75
2023/09/30 08:55:56;;;;;;;14.40;5.85;;;18.00;99.90;;;;;;5050288;28;20059;-75
2023/09/30 08:58:32;;;;;;;13.15;6.07;;;18.10;99.90;;;;;;5051233;28;20032;-75
2023/09/30 09:00:57;;;;;;;14.52;5.80;;;18.10;99.90;;;;;;5045674;28;20036;-75
2023/09/30 09:03:23;;;;;;;15.82;6.25;;;18.10;99.90;;;;;;5043224;28;20033;-75
2023/09/30 09:05:56;;;;;;;14.10;5.85;;;18.10;99.90;;;;;;5047754;28;20400;-75
2023/09/30 09:08:25;;;;;;;14.55;5.95;;;18.10;99.90;;;;;;5043320;28;20592;-75
2023/09/30 09:11:00;;;;;;;15.77;5.80;;;18.10;99.90;;;;;;5047574;28;20033;-76
2023/09/30 09:13:26;;;;;;;10.57;5.75;;;18.20;99.90;;;;;;5049496;28;20029;-75
2023/09/30 09:16:10;;;;;;;15.43;6.50;;;18.20;99.90;;;;;;5049751;28;20041;-75
2023/09/30 09:18:36;;;;;;;15.52;5.93;;;18.20;99.90;;;;;;5050101;28;20037;-75
2023/09/30 09:21:11;;;;;;;14.30;5.68;;;18.30;99.90;;;;;;5049604;28;20600;-76
2023/09/30 09:23:41;;;;;;;16.13;6.55;;;18.50;99.90;;;;;;5050185;28;20407;-75
2023/09/30 09:26:07;;;;;;;17.38;5.85;;;18.30;99.90;;;;;;5049667;28;20037;-75
2023/09/30 09:28:38;;;;;;;14.65;6.07;;;18.10;99.90;;;;;;5048242;28;20453;-74
2023/09/30 09:31:21;;;;;;;11.05;5.70;;;18.00;99.90;;;;;;5048967;28;20025;-76
2023/09/30 09:33:47;;;;;;;16.20;6.05;;;18.10;99.90;;;;;;5048097;28;20037;-75
2023/09/30 09:36:13;;;;;;;14.43;6.30;;;18.30;99.90;;;;;;5047391;28;20128;-75
2023/09/30 09:38:52;;;;;;;16.02;5.93;;;18.40;99.90;;;;;;5048968;28;20498;-75
2023/09/30 09:41:19;;;;;;;16.88;6.03;;;18.20;99.90;;;;;;5040556;28;20041;-75
2023/09/30 09:43:48;;;;;;;16.60;5.72;;;18.20;99.90;;;;;;5049819;28;20443;-75
2023/09/30 09:46:13;;;;;;;13.65;5.65;;;18.30;99.90;;;;;;5049797;28;20041;-75
2023/09/30 09:48:40;;;;;;;15.73;6.40;;;18.30;99.90;;;;;;5048356;28;20025;-75
2023/09/30 09:51:07;;;;;;;13.10;6.30;;;18.60;99.90;;;;;;5047737;28;20029;-75
2023/09/30 09:53:38;;;;;;;15.57;6.50;;;18.70;99.90;;;;;;5050105;28;20116;-73
2023/09/30 09:56:09;;;;;;;13.43;6.28;;;18.80;99.90;;;;;;5048909;28;20576;-73
2023/09/30 09:58:36;;;;;;;15.43;6.13;;;18.90;99.90;;;;;;5048180;28;20573;-75
2023/09/30 10:01:02;;;;;;;16.27;6.68;;;18.80;99.90;;;;;;5046174;28;20048;-73
2023/09/30 10:03:28;;;;;;;19.77;6.95;;;18.80;99.90;;;;;;5050240;28;20253;-75
2023/09/30 10:05:54;;;;;;;12.90;6.10;;;18.80;99.90;;;;;;5049109;28;20041;-75
2023/09/30 10:08:28;;;;;;;18.02;6.05;;;19.00;99.90;;;;;;5049736;28;20090;-76
2023/09/30 10:10:57;;;;;;;13.30;5.75;;;19.30;99.90;;;;;;5047213;28;20120;-75
2023/09/30 10:13:55;;;;;;;15.32;5.60;;;19.40;99.90;;;;;;5048991;28;20035;-75
2023/09/30 10:16:36;;;;;;;14.25;6.28;;;19.70;99.90;;;;;;5039193;28;20044;-75
2023/09/30 10:19:15;;;;;;;22.08;6.53;;;19.90;99.90;;;;;;5048642;28;20056;-76
2023/09/30 10:22:27;;;;;;;13.98;5.97;;;19.90;99.90;;;;;;5049562;28;20032;-74
2023/09/30 10:24:59;;;;;;;17.50;5.55;;;19.90;99.90;;;;;;5030208;28;20037;-75
2023/09/30 10:27:25;;;;;;;15.52;5.13;;;19.70;99.90;;;;;;5029802;28;20112;-75
2023/09/30 10:30:10;;;;;;;16.38;5.85;;;19.70;99.90;;;;;;5041367;28;20108;-75
2023/09/30 10:32:51;;;;;;;17.52;5.70;;;19.40;99.90;;;;;;5043878;28;20061;-75
2023/09/30 10:35:16;;;;;;;12.75;5.72;;;19.40;99.90;;;;;;5048658;28;20037;-75
2023/09/30 10:37:43;;;;;;;11.10;5.35;;;19.50;99.90;;;;;;5047301;28;20045;-75
2023/09/30 10:40:25;;;;;;;16.48;5.68;;;19.60;99.90;;;;;;5048212;28;20036;-75
2023/09/30 10:42:52;;;;;;;16.45;6.30;;;19.70;99.90;;;;;;5048361;28;20477;-75
2023/09/30 10:45:53;;;;;;;13.88;5.38;;;19.50;99.90;;;;;;5049276;28;20370;-74
2023/09/30 10:48:27;;;;;;;14.35;5.65;;;19.50;99.90;;;;;;5008093;28;20034;-75
2023/09/30 10:51:00;;;;;;;21.10;6.18;;;19.80;99.90;;;;;;5036157;28;20066;-74
2023/09/30 10:53:30;;;;;;;17.33;5.72;;;20.20;99.90;;;;;;5048877;28;20063;-74
2023/09/30 10:56:00;;;;;;;14.40;6.00;;;20.70;99.90;;;;;;5048195;28;20060;-75
2023/09/30 10:58:45;;;;;;;11.00;5.70;;;21.00;99.90;;;;;;5047847;28;20475;-75
2023/09/30 11:01:13;;;;;;;13.90;5.22;;;21.10;99.90;;;;;;5037004;28;20102;-75
2023/09/30 11:03:40;;;;;;;13.98;5.15;;;21.10;99.90;;;;;;5048750;28;20568;-75
2023/09/30 11:06:06;;;;;;;14.00;5.70;;;21.20;99.90;;;;;;5047915;28;20047;-75
2023/09/30 11:08:33;;;;;;;12.93;5.45;;;21.20;99.90;;;;;;5047290;28;20527;-75
2023/09/30 11:11:00;;;;;;;16.52;6.20;;;21.00;99.90;;;;;;5046568;28;20036;-74
2023/09/30 11:13:38;;;;;;;17.50;6.25;;;20.90;99.90;;;;;;5048073;28;20465;-75
2023/09/30 11:16:05;;;;;;;12.77;5.53;;;20.70;99.90;;;;;;5046426;28;20064;-74
2023/09/30 11:18:31;;;;;;;16.67;5.50;;;20.50;99.90;;;;;;5048352;28;20075;-74
2023/09/30 11:21:23;;;;;;;14.55;5.43;;;20.30;99.90;;;;;;5047579;28;20079;-75
2023/09/30 11:23:49;;;;;;;16.40;6.22;;;20.40;99.90;;;;;;5024553;28;20079;-75
2023/09/30 11:26:15;;;;;;;20.08;5.55;;;20.70;99.90;;;;;;5026707;28;20646;-75
2023/09/30 11:28:42;;;;;;;13.70;5.88;;;21.20;99.90;;;;;;5046216;28;20465;-74
2023/09/30 11:31:14;;;;;;;14.93;5.55;;;21.60;99.90;;;;;;5046673;28;20033;-73
2023/09/30 11:33:55;;;;;;;17.70;6.40;;;21.80;99.90;;;;;;5047947;28;20025;-72
2023/09/30 11:36:22;;;;;;;17.27;6.82;;;21.70;99.90;;;;;;5040621;28;20041;-71
2023/09/30 11:38:49;;;;;;;21.85;6.70;;;21.30;99.90;;;;;;5045635;28;20111;-72
2023/09/30 11:41:18;;;;;;;15.85;6.28;;;21.00;99.90;;;;;;5046996;28;20481;-73
2023/09/30 11:44:01;;;;;;;16.67;5.90;;;21.20;99.90;;;;;;5047716;28;20032;-72
2023/09/30 11:46:27;;;;;;;14.20;5.78;;;20.50;99.90;;;;;;5047784;28;20096;-73
2023/09/30 11:49:02;;;;;;;17.65;6.28;;;20.40;99.90;;;;;;5047273;28;20474;-74
2023/09/30 11:51:29;;;;;;;15.80;6.53;;;20.20;99.90;;;;;;5035240;28;20078;-73
2023/09/30 11:53:57;;;;;;;18.25;6.65;;;20.10;99.90;;;;;;5034572;28;20053;-74
2023/09/30 11:56:27;;;;;;;17.65;6.53;;;20.00;99.90;;;;;;5055382;28;20033;-71
2023/09/30 11:58:54;;;;;;;18.77;6.18;;;20.40;99.90;;;;;;5034090;28;20029;-73
2023/09/30 12:01:21;;;;;;;15.70;6.10;;;20.80;99.90;;;;;;5045361;28;20029;-72
2023/09/30 12:03:51;;;;;;;18.60;6.85;;;21.20;99.90;;;;;;5046942;28;20056;-72
2023/09/30 12:06:17;;;;;;;18.92;6.57;;;21.50;99.90;;;;;;5042513;28;20025;-72
2023/09/30 12:08:43;;;;;;;18.98;6.22;;;21.80;99.90;;;;;;5044685;28;20053;-72
2023/09/30 12:11:12;;;;;;;17.25;6.05;;;22.00;99.90;;;;;;5046977;28;20033;-72
2023/09/30 12:13:38;;;;;;;19.65;6.47;;;22.20;99.90;;;;;;5046263;28;20068;-72
2023/09/30 12:16:05;;;;;;;14.23;6.20;;;22.30;99.90;;;;;;5046369;28;20055;-73
2023/09/30 12:18:30;;;;;;;20.60;7.00;;;22.10;99.90;;;;;;5042724;28;20037;-72
2023/09/30 12:20:56;;;;;;;20.38;7.25;;;21.90;99.90;;;;;;5039510;28;20034;-73
2023/09/30 12:23:22;;;;;;;20.38;7.35;;;21.50;98.50;;;;;;5047948;28;20013;-73
2023/09/30 12:25:48;;;;;;;19.73;7.32;;;21.20;99.90;;;;;;5047341;28;20029;-73
2023/09/30 12:28:15;;;;;;;18.75;6.90;;;20.70;99.90;;;;;;5043457;28;20119;-73
2023/09/30 12:30:40;;;;;;;17.88;6.75;;;20.30;99.90;;;;;;5038275;28;20029;-73
2023/09/30 12:33:07;;;;;;;18.75;6.72;;;20.10;99.90;;;;;;5044785;28;20033;-73
2023/09/30 12:35:33;;;;;;;21.15;6.82;;;19.90;99.90;;;;;;5047584;28;20106;-72
2023/09/30 12:37:59;;;;;;;14.82;6.22;;;19.90;99.90;;;;;;5039585;28;20057;-73
2023/09/30 12:40:25;;;;;;;17.10;6.20;;;19.80;99.90;;;;;;5045936;28;20489;-73